AMQ4276 DTMB-EPWR
Flight info
| Callsign | AMQ4276 |
|---|---|
| Flight time | N/A |
| Altitude | 35000 |
| Route | LARBI1A LARBI A411 VAXAL UM734 SIRVI UG727 NIBEL M734 BETOT/N0372F180 L44 OST/N0443F360 DCT GOTMO DCT NIKOL/N0442F370 DCT ALIVO DCT NIGSI DCT ABLOM DCT VALPI/N0440F360 DCT REGLI L617 EPOPA |
| Aircraft | A320/M-SDE3FGHIRWY/LB1 |
Departure
| Time | 2026-05-06 19:36 |
|---|---|
| Airport | Monastir Habib Bourguiba International Airport (DTMB) |
Arrival
| Time | N/A |
|---|---|
| Airport | Copernicus Wrocław Airport (EPWR) |
| Time | Latitude | Longitude | Altitude | Speed | Heading |
|---|---|---|---|---|---|
| 2026-05-06 19:17 | 35.76070 | 10.75682 | 15 ft | 0 kts | 343° |
| 2026-05-06 19:27 | 35.76057 | 10.75686 | 15 ft | 2 kts | 346° |
| 2026-05-06 19:28 | 35.76043 | 10.75691 | 15 ft | 2 kts | 344° |
| 2026-05-06 19:28 | 35.76029 | 10.75696 | 15 ft | 2 kts | 345° |
| 2026-05-06 19:28 | 35.76014 | 10.75701 | 14 ft | 2 kts | 345° |
| 2026-05-06 19:28 | 35.76005 | 10.75704 | 14 ft | 0 kts | 345° |
| 2026-05-06 19:29 | 35.76000 | 10.75706 | 14 ft | 0 kts | 298° |
| 2026-05-06 19:29 | 35.75999 | 10.75711 | 14 ft | 0 kts | 252° |
| 2026-05-06 19:29 | 35.76001 | 10.75719 | 14 ft | 0 kts | 252° |
| 2026-05-06 19:31 | 35.75981 | 10.75634 | 15 ft | 20 kts | 254° |
| 2026-05-06 19:32 | 35.75938 | 10.75458 | 16 ft | 20 kts | 249° |
| 2026-05-06 19:32 | 35.75900 | 10.75295 | 16 ft | 19 kts | 253° |
| 2026-05-06 19:32 | 35.75862 | 10.75131 | 15 ft | 20 kts | 255° |
| 2026-05-06 19:32 | 35.75822 | 10.74964 | 15 ft | 20 kts | 254° |
| 2026-05-06 19:33 | 35.75794 | 10.74800 | 15 ft | 19 kts | 278° |
| 2026-05-06 19:33 | 35.75769 | 10.74642 | 15 ft | 21 kts | 255° |
| 2026-05-06 19:33 | 35.75722 | 10.74441 | 15 ft | 24 kts | 253° |
| 2026-05-06 19:33 | 35.75676 | 10.74248 | 15 ft | 23 kts | 251° |
| 2026-05-06 19:34 | 35.75628 | 10.74058 | 15 ft | 22 kts | 255° |
| 2026-05-06 19:34 | 35.75587 | 10.73869 | 12 ft | 19 kts | 253° |
| 2026-05-06 19:34 | 35.75509 | 10.73811 | 12 ft | 14 kts | 160° |
| 2026-05-06 19:34 | 35.75426 | 10.73876 | 12 ft | 14 kts | 104° |
| 2026-05-06 19:35 | 35.75460 | 10.74050 | 15 ft | 45 kts | 73° |
| 2026-05-06 19:35 | 35.75618 | 10.74704 | 14 ft | 113 kts | 74° |
| 2026-05-06 19:35 | 35.75897 | 10.75867 | 20 ft | 167 kts | 70° |
| 2026-05-06 19:35 | 35.76221 | 10.77296 | 496 ft | 175 kts | 71° |
| 2026-05-06 19:36 | 35.76328 | 10.78777 | 1202 ft | 180 kts | 103° |
| 2026-05-06 19:36 | 35.75628 | 10.80040 | 1869 ft | 185 kts | 133° |
| 2026-05-06 19:36 | 35.74821 | 10.81318 | 2241 ft | 198 kts | 105° |
| 2026-05-06 19:36 | 35.74840 | 10.83003 | 2596 ft | 206 kts | 60° |
| 2026-05-06 19:37 | 35.75840 | 10.84249 | 3043 ft | 214 kts | 19° |
| 2026-05-06 19:37 | 35.77327 | 10.84362 | 3489 ft | 229 kts | 342° |
| 2026-05-06 19:37 | 35.78775 | 10.83401 | 3992 ft | 247 kts | 327° |
| 2026-05-06 19:37 | 35.80203 | 10.82174 | 4669 ft | 256 kts | 327° |
| 2026-05-06 19:38 | 35.81683 | 10.80958 | 5533 ft | 258 kts | 328° |
| 2026-05-06 19:38 | 35.83201 | 10.79789 | 6395 ft | 260 kts | 330° |
| 2026-05-06 19:38 | 35.84762 | 10.78643 | 7248 ft | 263 kts | 330° |
| 2026-05-06 19:38 | 35.86329 | 10.77528 | 8086 ft | 266 kts | 331° |
| 2026-05-06 19:39 | 35.87940 | 10.76403 | 8923 ft | 268 kts | 331° |
| 2026-05-06 19:39 | 35.89549 | 10.75291 | 9736 ft | 271 kts | 331° |
| 2026-05-06 19:39 | 35.91190 | 10.74163 | 10464 ft | 276 kts | 331° |
| 2026-05-06 19:39 | 35.92916 | 10.72981 | 10866 ft | 293 kts | 331° |
| 2026-05-06 19:40 | 35.94767 | 10.71715 | 11214 ft | 312 kts | 331° |
| 2026-05-06 19:40 | 35.96703 | 10.70392 | 11578 ft | 327 kts | 331° |
| 2026-05-06 19:40 | 35.98718 | 10.69015 | 12231 ft | 333 kts | 331° |
| 2026-05-06 19:40 | 36.00758 | 10.67621 | 12999 ft | 335 kts | 331° |
| 2026-05-06 19:41 | 36.02799 | 10.66226 | 13713 ft | 338 kts | 331° |
| 2026-05-06 19:41 | 36.04847 | 10.64825 | 14402 ft | 342 kts | 331° |
| 2026-05-06 19:41 | 36.06911 | 10.63413 | 15078 ft | 344 kts | 331° |
| 2026-05-06 19:41 | 36.09007 | 10.61980 | 15743 ft | 347 kts | 331° |
| 2026-05-06 19:42 | 36.11119 | 10.60537 | 16396 ft | 350 kts | 332° |
| 2026-05-06 19:42 | 36.13274 | 10.59070 | 17046 ft | 353 kts | 332° |
| 2026-05-06 19:42 | 36.15427 | 10.57601 | 17672 ft | 356 kts | 332° |
| 2026-05-06 19:42 | 36.17582 | 10.56126 | 18280 ft | 359 kts | 332° |
| 2026-05-06 19:43 | 36.19761 | 10.54633 | 18875 ft | 362 kts | 332° |
| 2026-05-06 19:43 | 36.21995 | 10.53219 | 19453 ft | 365 kts | 335° |
| 2026-05-06 19:43 | 36.24315 | 10.51961 | 20018 ft | 367 kts | 338° |
| 2026-05-06 19:43 | 36.26770 | 10.51024 | 20558 ft | 371 kts | 348° |
| 2026-05-06 19:44 | 36.29316 | 10.50712 | 21087 ft | 375 kts | 359° |
| 2026-05-06 19:44 | 36.31915 | 10.51069 | 21615 ft | 380 kts | 9° |
| 2026-05-06 19:44 | 36.34502 | 10.51812 | 22158 ft | 383 kts | 11° |
| 2026-05-06 19:44 | 36.37102 | 10.52619 | 22666 ft | 386 kts | 12° |
| 2026-05-06 19:45 | 36.39696 | 10.53432 | 23154 ft | 388 kts | 12° |
| 2026-05-06 19:45 | 36.42299 | 10.54246 | 23630 ft | 391 kts | 12° |
| 2026-05-06 19:45 | 36.44969 | 10.55079 | 24099 ft | 393 kts | 12° |
| 2026-05-06 19:45 | 36.47590 | 10.55895 | 24546 ft | 395 kts | 12° |
| 2026-05-06 19:46 | 36.50287 | 10.56734 | 24987 ft | 398 kts | 12° |
| 2026-05-06 19:46 | 36.52966 | 10.57567 | 25406 ft | 400 kts | 12° |
| 2026-05-06 19:46 | 36.55653 | 10.58402 | 25816 ft | 402 kts | 12° |
| 2026-05-06 19:46 | 36.58347 | 10.59241 | 26209 ft | 404 kts | 12° |
| 2026-05-06 19:47 | 36.61060 | 10.60086 | 26587 ft | 406 kts | 12° |
| 2026-05-06 19:47 | 36.63830 | 10.60948 | 26966 ft | 408 kts | 12° |
| 2026-05-06 19:47 | 36.66542 | 10.61793 | 27338 ft | 409 kts | 12° |
| 2026-05-06 19:47 | 36.69316 | 10.62658 | 27814 ft | 408 kts | 12° |
| 2026-05-06 19:48 | 36.72063 | 10.63514 | 28318 ft | 406 kts | 12° |
| 2026-05-06 19:48 | 36.74755 | 10.64356 | 28793 ft | 404 kts | 12° |
| 2026-05-06 19:48 | 36.77494 | 10.65212 | 29257 ft | 403 kts | 12° |
| 2026-05-06 19:48 | 36.80178 | 10.66055 | 29707 ft | 401 kts | 12° |
| 2026-05-06 19:49 | 36.82861 | 10.66899 | 30150 ft | 400 kts | 12° |
| 2026-05-06 19:49 | 36.85557 | 10.67746 | 30574 ft | 399 kts | 12° |
| 2026-05-06 19:49 | 36.88224 | 10.68584 | 30993 ft | 397 kts | 12° |
| 2026-05-06 19:49 | 36.90881 | 10.69418 | 31410 ft | 396 kts | 12° |
| 2026-05-06 19:50 | 36.93554 | 10.70258 | 31803 ft | 395 kts | 12° |
| 2026-05-06 19:50 | 36.96199 | 10.71089 | 32176 ft | 394 kts | 12° |
| 2026-05-06 19:50 | 36.98844 | 10.71923 | 32545 ft | 392 kts | 11° |
| 2026-05-06 19:50 | 37.01465 | 10.72751 | 32906 ft | 391 kts | 11° |
| 2026-05-06 19:51 | 37.04089 | 10.73580 | 33244 ft | 390 kts | 11° |
| 2026-05-06 19:51 | 37.06726 | 10.74412 | 33526 ft | 390 kts | 10° |
| 2026-05-06 19:51 | 37.09329 | 10.75233 | 33756 ft | 391 kts | 10° |
| 2026-05-06 19:51 | 37.11960 | 10.76062 | 33983 ft | 392 kts | 9° |
| 2026-05-06 19:52 | 37.14605 | 10.76893 | 34215 ft | 393 kts | 9° |
| 2026-05-06 19:52 | 37.17250 | 10.77723 | 34440 ft | 394 kts | 9° |
| 2026-05-06 19:52 | 37.19907 | 10.78559 | 34660 ft | 395 kts | 9° |
| 2026-05-06 19:52 | 37.22584 | 10.79404 | 34868 ft | 396 kts | 9° |
| 2026-05-06 19:53 | 37.27899 | 10.81086 | 34929 ft | 397 kts | 10° |
| 2026-05-06 19:53 | 37.33238 | 10.82780 | 34935 ft | 396 kts | 10° |
| 2026-05-06 19:54 | 37.38573 | 10.84474 | 34937 ft | 396 kts | 10° |
| 2026-05-06 19:54 | 37.43914 | 10.86174 | 34937 ft | 397 kts | 10° |
| 2026-05-06 19:55 | 37.49272 | 10.87881 | 34937 ft | 399 kts | 10° |
| 2026-05-06 19:55 | 37.54661 | 10.89598 | 34937 ft | 400 kts | 10° |
| 2026-05-06 19:56 | 37.60054 | 10.91317 | 34937 ft | 401 kts | 10° |
| 2026-05-06 19:56 | 37.65462 | 10.93044 | 34937 ft | 402 kts | 10° |
| 2026-05-06 19:57 | 37.70874 | 10.94776 | 34937 ft | 403 kts | 10° |
| 2026-05-06 19:57 | 37.76310 | 10.96365 | 34936 ft | 403 kts | 7° |
| 2026-05-06 19:58 | 37.81771 | 10.97711 | 34936 ft | 402 kts | 7° |
| 2026-05-06 19:58 | 37.87268 | 10.99058 | 34936 ft | 401 kts | 7° |
| 2026-05-06 19:59 | 37.92695 | 11.00390 | 34937 ft | 400 kts | 7° |
| 2026-05-06 19:59 | 37.98150 | 11.01734 | 34935 ft | 399 kts | 7° |
| 2026-05-06 20:00 | 38.03600 | 11.03078 | 34931 ft | 399 kts | 7° |
| 2026-05-06 20:00 | 38.09010 | 11.04415 | 34923 ft | 398 kts | 8° |
| 2026-05-06 20:01 | 38.14437 | 11.05755 | 34916 ft | 398 kts | 7° |
| 2026-05-06 20:01 | 38.19845 | 11.07092 | 34912 ft | 398 kts | 7° |
| 2026-05-06 20:02 | 38.25280 | 11.08439 | 34910 ft | 398 kts | 8° |
| 2026-05-06 20:02 | 38.30697 | 11.09785 | 34910 ft | 398 kts | 8° |
| 2026-05-06 20:03 | 38.36100 | 11.11130 | 34909 ft | 398 kts | 8° |
| 2026-05-06 20:03 | 38.41546 | 11.12489 | 34910 ft | 398 kts | 8° |